Terminal Aerodrome Forecast
Issued by NWS

Home | Current Version | Previous Version | Text Only | Print | Product List | Glossary On
Versions: 1 2 3 4 5 6 7 8 9 10 11 12 13 14
000
FTUS43 KICT 280500
TAFCNU
TAF
KCNU 280520Z 2806/2906 12006KT P6SM SCT100
     FM281600 18014G20KT P6SM SCT040 BKN100
     FM290300 15008KT P6SM SCT040 BKN100=

USA.gov is the U.S. government's official web portal to all federal, state and local government web resources and services.